sensor_id;sensor_type;location;lat;lon;timestamp;temperature;humidity
69208;SHT31;70114;47.690;8.898;2023-08-24T00:01:56;25.41;61.67
69208;SHT31;70114;47.690;8.898;2023-08-24T00:04:21;25.44;61.45
69208;SHT31;70114;47.690;8.898;2023-08-24T00:06:50;25.48;61.70
69208;SHT31;70114;47.690;8.898;2023-08-24T00:09:16;25.16;62.47
69208;SHT31;70114;47.690;8.898;2023-08-24T00:11:42;25.14;62.23
69208;SHT31;70114;47.690;8.898;2023-08-24T00:14:07;24.80;62.48
69208;SHT31;70114;47.690;8.898;2023-08-24T00:16:32;24.28;63.52
69208;SHT31;70114;47.690;8.898;2023-08-24T00:18:58;24.17;64.02
69208;SHT31;70114;47.690;8.898;2023-08-24T00:21:23;23.97;64.53
69208;SHT31;70114;47.690;8.898;2023-08-24T00:23:50;23.86;64.88
69208;SHT31;70114;47.690;8.898;2023-08-24T00:26:15;24.00;64.29
69208;SHT31;70114;47.690;8.898;2023-08-24T00:28:46;24.35;63.02
69208;SHT31;70114;47.690;8.898;2023-08-24T00:31:14;24.47;62.78
69208;SHT31;70114;47.690;8.898;2023-08-24T00:33:40;24.62;62.46
69208;SHT31;70114;47.690;8.898;2023-08-24T00:36:06;24.68;62.16
69208;SHT31;70114;47.690;8.898;2023-08-24T00:38:32;24.77;61.84
69208;SHT31;70114;47.690;8.898;2023-08-24T00:41:02;24.83;61.57
69208;SHT31;70114;47.690;8.898;2023-08-24T00:43:28;24.92;61.31
69208;SHT31;70114;47.690;8.898;2023-08-24T00:46:04;24.87;61.38
69208;SHT31;70114;47.690;8.898;2023-08-24T00:48:35;24.84;61.32
69208;SHT31;70114;47.690;8.898;2023-08-24T00:51:01;24.84;61.15
69208;SHT31;70114;47.690;8.898;2023-08-24T00:53:36;24.83;61.49
69208;SHT31;70114;47.690;8.898;2023-08-24T00:56:02;24.79;61.60
69208;SHT31;70114;47.690;8.898;2023-08-24T00:58:39;24.80;61.38
69208;SHT31;70114;47.690;8.898;2023-08-24T01:01:05;24.73;61.59
69208;SHT31;70114;47.690;8.898;2023-08-24T01:03:30;24.76;61.48
69208;SHT31;70114;47.690;8.898;2023-08-24T01:06:05;24.68;62.08
69208;SHT31;70114;47.690;8.898;2023-08-24T01:08:34;24.65;62.51
69208;SHT31;70114;47.690;8.898;2023-08-24T01:11:18;24.63;62.78
69208;SHT31;70114;47.690;8.898;2023-08-24T01:14:12;24.59;62.88
69208;SHT31;70114;47.690;8.898;2023-08-24T01:16:43;24.47;62.52
69208;SHT31;70114;47.690;8.898;2023-08-24T01:19:42;24.39;63.12
69208;SHT31;70114;47.690;8.898;2023-08-24T01:25:17;24.31;62.83
69208;SHT31;70114;47.690;8.898;2023-08-24T01:27:47;24.31;63.00
69208;SHT31;70114;47.690;8.898;2023-08-24T01:30:13;24.24;62.39
69208;SHT31;70114;47.690;8.898;2023-08-24T01:32:41;24.27;62.29
69208;SHT31;70114;47.690;8.898;2023-08-24T01:35:13;24.29;63.23
69208;SHT31;70114;47.690;8.898;2023-08-24T01:37:41;24.29;63.28
69208;SHT31;70114;47.690;8.898;2023-08-24T01:40:53;24.28;62.82
69208;SHT31;70114;47.690;8.898;2023-08-24T01:43:29;24.27;62.74
69208;SHT31;70114;47.690;8.898;2023-08-24T01:46:00;24.24;62.80
69208;SHT31;70114;47.690;8.898;2023-08-24T01:48:35;24.22;62.64
69208;SHT31;70114;47.690;8.898;2023-08-24T01:51:12;24.14;62.48
69208;SHT31;70114;47.690;8.898;2023-08-24T01:53:46;24.10;62.87
69208;SHT31;70114;47.690;8.898;2023-08-24T01:56:19;24.11;62.37
69208;SHT31;70114;47.690;8.898;2023-08-24T01:59:04;24.08;62.38
69208;SHT31;70114;47.690;8.898;2023-08-24T02:01:30;24.04;62.71
69208;SHT31;70114;47.690;8.898;2023-08-24T02:03:55;23.96;63.27
69208;SHT31;70114;47.690;8.898;2023-08-24T02:06:21;23.73;64.16
69208;SHT31;70114;47.690;8.898;2023-08-24T02:08:47;23.76;63.46
69208;SHT31;70114;47.690;8.898;2023-08-24T02:11:13;23.59;63.98
69208;SHT31;70114;47.690;8.898;2023-08-24T02:13:39;23.63;63.71
69208;SHT31;70114;47.690;8.898;2023-08-24T02:16:10;23.63;63.31
69208;SHT31;70114;47.690;8.898;2023-08-24T02:18:37;23.62;63.49
69208;SHT31;70114;47.690;8.898;2023-08-24T02:21:11;23.65;64.27
69208;SHT31;70114;47.690;8.898;2023-08-24T02:23:40;23.63;64.41
69208;SHT31;70114;47.690;8.898;2023-08-24T02:26:06;23.66;64.21
69208;SHT31;70114;47.690;8.898;2023-08-24T02:28:33;23.63;64.57
69208;SHT31;70114;47.690;8.898;2023-08-24T02:31:13;23.63;64.92
69208;SHT31;70114;47.690;8.898;2023-08-24T02:33:41;23.63;64.91
69208;SHT31;70114;47.690;8.898;2023-08-24T02:36:14;23.49;65.42
69208;SHT31;70114;47.690;8.898;2023-08-24T02:38:40;23.31;65.44
69208;SHT31;70114;47.690;8.898;2023-08-24T02:41:07;23.39;64.75
69208;SHT31;70114;47.690;8.898;2023-08-24T02:43:42;23.41;64.81
69208;SHT31;70114;47.690;8.898;2023-08-24T02:46:11;23.46;64.27
69208;SHT31;70114;47.690;8.898;2023-08-24T02:48:37;23.43;65.22
69208;SHT31;70114;47.690;8.898;2023-08-24T02:51:05;23.46;64.71
69208;SHT31;70114;47.690;8.898;2023-08-24T02:53:32;23.26;65.75
69208;SHT31;70114;47.690;8.898;2023-08-24T02:56:01;23.25;65.56
69208;SHT31;70114;47.690;8.898;2023-08-24T02:58:27;23.26;64.84
69208;SHT31;70114;47.690;8.898;2023-08-24T03:00:53;23.32;64.81
69208;SHT31;70114;47.690;8.898;2023-08-24T03:03:19;23.29;64.72
69208;SHT31;70114;47.690;8.898;2023-08-24T03:05:55;23.21;65.15
69208;SHT31;70114;47.690;8.898;2023-08-24T03:08:21;23.19;64.96
69208;SHT31;70114;47.690;8.898;2023-08-24T03:10:47;23.23;64.57
69208;SHT31;70114;47.690;8.898;2023-08-24T03:13:13;23.18;64.65
69208;SHT31;70114;47.690;8.898;2023-08-24T03:15:42;23.19;64.47
69208;SHT31;70114;47.690;8.898;2023-08-24T03:18:14;23.14;64.81
69208;SHT31;70114;47.690;8.898;2023-08-24T03:20:40;22.81;65.89
69208;SHT31;70114;47.690;8.898;2023-08-24T03:23:07;23.11;64.72
69208;SHT31;70114;47.690;8.898;2023-08-24T03:25:35;23.05;65.42
69208;SHT31;70114;47.690;8.898;2023-08-24T03:28:05;23.04;66.11
69208;SHT31;70114;47.690;8.898;2023-08-24T03:30:31;23.07;65.82
69208;SHT31;70114;47.690;8.898;2023-08-24T03:33:03;23.08;65.52
69208;SHT31;70114;47.690;8.898;2023-08-24T03:35:32;23.11;64.74
69208;SHT31;70114;47.690;8.898;2023-08-24T03:37:58;23.15;64.67
69208;SHT31;70114;47.690;8.898;2023-08-24T03:40:24;23.12;64.67
69208;SHT31;70114;47.690;8.898;2023-08-24T03:42:50;23.07;64.85
69208;SHT31;70114;47.690;8.898;2023-08-24T03:45:18;22.84;65.24
69208;SHT31;70114;47.690;8.898;2023-08-24T03:47:44;22.91;65.07
69208;SHT31;70114;47.690;8.898;2023-08-24T03:50:09;22.90;65.22
69208;SHT31;70114;47.690;8.898;2023-08-24T03:52:35;22.90;66.08
69208;SHT31;70114;47.690;8.898;2023-08-24T03:55:01;22.90;66.29
69208;SHT31;70114;47.690;8.898;2023-08-24T03:57:30;22.70;66.38
69208;SHT31;70114;47.690;8.898;2023-08-24T04:00:11;22.57;66.51
69208;SHT31;70114;47.690;8.898;2023-08-24T04:02:44;22.64;66.02
69208;SHT31;70114;47.690;8.898;2023-08-24T04:05:18;22.68;65.79
69208;SHT31;70114;47.690;8.898;2023-08-24T04:07:46;22.70;65.72
69208;SHT31;70114;47.690;8.898;2023-08-24T04:10:23;22.60;66.14
69208;SHT31;70114;47.690;8.898;2023-08-24T04:12:48;22.66;65.82
69208;SHT31;70114;47.690;8.898;2023-08-24T04:15:14;22.60;66.14
69208;SHT31;70114;47.690;8.898;2023-08-24T04:17:39;22.64;66.30
69208;SHT31;70114;47.690;8.898;2023-08-24T04:20:05;22.47;67.10
69208;SHT31;70114;47.690;8.898;2023-08-24T04:22:32;22.52;66.61
69208;SHT31;70114;47.690;8.898;2023-08-24T04:24:58;22.29;67.11
69208;SHT31;70114;47.690;8.898;2023-08-24T04:27:24;21.99;68.03
69208;SHT31;70114;47.690;8.898;2023-08-24T04:30:13;22.02;67.93
69208;SHT31;70114;47.690;8.898;2023-08-24T04:32:41;22.01;67.82
69208;SHT31;70114;47.690;8.898;2023-08-24T04:35:12;22.13;67.32
69208;SHT31;70114;47.690;8.898;2023-08-24T04:37:58;22.13;67.07
69208;SHT31;70114;47.690;8.898;2023-08-24T04:40:27;22.23;66.72
69208;SHT31;70114;47.690;8.898;2023-08-24T04:42:53;22.23;66.98
69208;SHT31;70114;47.690;8.898;2023-08-24T04:45:22;22.32;66.51
69208;SHT31;70114;47.690;8.898;2023-08-24T04:47:55;22.35;66.88
69208;SHT31;70114;47.690;8.898;2023-08-24T04:51:01;22.45;66.86
69208;SHT31;70114;47.690;8.898;2023-08-24T04:53:38;22.40;66.65
69208;SHT31;70114;47.690;8.898;2023-08-24T04:56:16;22.49;66.41
69208;SHT31;70114;47.690;8.898;2023-08-24T04:58:58;22.49;67.05
69208;SHT31;70114;47.690;8.898;2023-08-24T05:01:26;22.52;66.91
69208;SHT31;70114;47.690;8.898;2023-08-24T05:03:58;22.50;67.31
69208;SHT31;70114;47.690;8.898;2023-08-24T05:06:23;22.56;67.11
69208;SHT31;70114;47.690;8.898;2023-08-24T05:08:49;22.63;66.75
69208;SHT31;70114;47.690;8.898;2023-08-24T05:11:17;22.61;66.77
69208;SHT31;70114;47.690;8.898;2023-08-24T05:13:46;22.67;66.38
69208;SHT31;70114;47.690;8.898;2023-08-24T05:16:24;22.64;66.85
69208;SHT31;70114;47.690;8.898;2023-08-24T05:18:55;22.77;66.48
69208;SHT31;70114;47.690;8.898;2023-08-24T05:21:24;22.83;66.95
69208;SHT31;70114;47.690;8.898;2023-08-24T05:23:49;22.75;67.26
69208;SHT31;70114;47.690;8.898;2023-08-24T05:26:21;22.91;66.81
69208;SHT31;70114;47.690;8.898;2023-08-24T05:29:02;22.95;66.70
69208;SHT31;70114;47.690;8.898;2023-08-24T05:31:27;23.07;67.08
69208;SHT31;70114;47.690;8.898;2023-08-24T05:33:56;23.19;66.98
69208;SHT31;70114;47.690;8.898;2023-08-24T05:36:21;23.23;67.06
69208;SHT31;70114;47.690;8.898;2023-08-24T05:38:47;23.33;66.99
69208;SHT31;70114;47.690;8.898;2023-08-24T05:41:16;23.42;66.77
69208;SHT31;70114;47.690;8.898;2023-08-24T05:43:42;23.48;66.79
69208;SHT31;70114;47.690;8.898;2023-08-24T05:46:21;23.38;66.94
69208;SHT31;70114;47.690;8.898;2023-08-24T05:49:01;23.55;66.45
69208;SHT31;70114;47.690;8.898;2023-08-24T05:51:51;23.62;66.40
69208;SHT31;70114;47.690;8.898;2023-08-24T05:54:20;23.59;66.87
69208;SHT31;70114;47.690;8.898;2023-08-24T05:56:46;23.66;66.85
69208;SHT31;70114;47.690;8.898;2023-08-24T05:59:12;23.79;66.89
69208;SHT31;70114;47.690;8.898;2023-08-24T06:01:37;23.84;66.68
69208;SHT31;70114;47.690;8.898;2023-08-24T06:04:15;23.96;66.69
69208;SHT31;70114;47.690;8.898;2023-08-24T06:06:40;24.07;66.32
69208;SHT31;70114;47.690;8.898;2023-08-24T06:09:09;24.14;66.12
69208;SHT31;70114;47.690;8.898;2023-08-24T06:14:30;24.34;65.92
69208;SHT31;70114;47.690;8.898;2023-08-24T06:16:56;24.45;65.69
69208;SHT31;70114;47.690;8.898;2023-08-24T06:19:24;24.54;65.35
69208;SHT31;70114;47.690;8.898;2023-08-24T06:21:50;24.61;65.18
69208;SHT31;70114;47.690;8.898;2023-08-24T06:24:19;24.72;64.99
69208;SHT31;70114;47.690;8.898;2023-08-24T06:26:55;24.80;65.32
69208;SHT31;70114;47.690;8.898;2023-08-24T06:29:20;24.89;64.56
69208;SHT31;70114;47.690;8.898;2023-08-24T06:31:46;24.97;64.43
69208;SHT31;70114;47.690;8.898;2023-08-24T06:34:11;25.06;63.76
69208;SHT31;70114;47.690;8.898;2023-08-24T06:36:37;25.10;63.92
69208;SHT31;70114;47.690;8.898;2023-08-24T06:39:12;25.24;63.68
69208;SHT31;70114;47.690;8.898;2023-08-24T06:41:37;25.24;64.02
69208;SHT31;70114;47.690;8.898;2023-08-24T06:44:05;25.35;63.74
69208;SHT31;70114;47.690;8.898;2023-08-24T06:46:31;25.45;63.33
69208;SHT31;70114;47.690;8.898;2023-08-24T06:48:56;25.58;63.12
69208;SHT31;70114;47.690;8.898;2023-08-24T06:51:22;25.65;62.81
69208;SHT31;70114;47.690;8.898;2023-08-24T06:53:47;25.72;62.65
69208;SHT31;70114;47.690;8.898;2023-08-24T06:56:14;25.84;62.62
69208;SHT31;70114;47.690;8.898;2023-08-24T06:58:47;25.96;62.00
69208;SHT31;70114;47.690;8.898;2023-08-24T07:01:13;25.92;63.05
69208;SHT31;70114;47.690;8.898;2023-08-24T07:03:38;26.00;62.62
69208;SHT31;70114;47.690;8.898;2023-08-24T07:06:07;26.02;61.64
69208;SHT31;70114;47.690;8.898;2023-08-24T07:08:33;26.16;61.48
69208;SHT31;70114;47.690;8.898;2023-08-24T07:10:58;26.16;59.45
69208;SHT31;70114;47.690;8.898;2023-08-24T07:13:24;26.16;59.51
69208;SHT31;70114;47.690;8.898;2023-08-24T07:16:11;26.34;59.15
69208;SHT31;70114;47.690;8.898;2023-08-24T07:18:36;26.24;59.35
69208;SHT31;70114;47.690;8.898;2023-08-24T07:21:02;26.45;59.03
69208;SHT31;70114;47.690;8.898;2023-08-24T07:23:27;26.48;58.61
69208;SHT31;70114;47.690;8.898;2023-08-24T07:25:53;26.47;58.19
69208;SHT31;70114;47.690;8.898;2023-08-24T07:28:19;26.55;58.18
69208;SHT31;70114;47.690;8.898;2023-08-24T07:30:44;26.74;57.61
69208;SHT31;70114;47.690;8.898;2023-08-24T07:33:10;26.54;58.22
69208;SHT31;70114;47.690;8.898;2023-08-24T07:35:36;26.50;58.51
69208;SHT31;70114;47.690;8.898;2023-08-24T07:38:01;26.54;58.39
69208;SHT31;70114;47.690;8.898;2023-08-24T07:40:30;26.44;58.62
69208;SHT31;70114;47.690;8.898;2023-08-24T07:42:55;26.51;58.38
69208;SHT31;70114;47.690;8.898;2023-08-24T07:45:22;26.39;58.95
69208;SHT31;70114;47.690;8.898;2023-08-24T07:47:48;26.51;59.06
69208;SHT31;70114;47.690;8.898;2023-08-24T07:50:14;26.61;58.58
69208;SHT31;70114;47.690;8.898;2023-08-24T07:52:39;26.68;58.22
69208;SHT31;70114;47.690;8.898;2023-08-24T07:55:06;26.65;58.23
69208;SHT31;70114;47.690;8.898;2023-08-24T07:57:38;26.80;57.91
69208;SHT31;70114;47.690;8.898;2023-08-24T08:00:05;26.95;57.45
69208;SHT31;70114;47.690;8.898;2023-08-24T08:02:31;27.15;57.12
69208;SHT31;70114;47.690;8.898;2023-08-24T08:04:59;27.12;57.59
69208;SHT31;70114;47.690;8.898;2023-08-24T08:07:26;27.26;57.45
69208;SHT31;70114;47.690;8.898;2023-08-24T08:09:51;27.46;56.43
69208;SHT31;70114;47.690;8.898;2023-08-24T08:12:17;27.57;56.44
69208;SHT31;70114;47.690;8.898;2023-08-24T08:14:42;27.66;56.20
69208;SHT31;70114;47.690;8.898;2023-08-24T08:17:07;27.88;55.82
69208;SHT31;70114;47.690;8.898;2023-08-24T08:19:33;27.97;55.72
69208;SHT31;70114;47.690;8.898;2023-08-24T08:22:01;27.90;55.45
69208;SHT31;70114;47.690;8.898;2023-08-24T08:24:26;28.02;55.68
69208;SHT31;70114;47.690;8.898;2023-08-24T08:26:51;28.05;55.85
69208;SHT31;70114;47.690;8.898;2023-08-24T08:29:17;28.19;55.28
69208;SHT31;70114;47.690;8.898;2023-08-24T08:31:43;28.32;55.14
69208;SHT31;70114;47.690;8.898;2023-08-24T08:34:08;28.32;55.03
69208;SHT31;70114;47.690;8.898;2023-08-24T08:36:34;28.43;55.05
69208;SHT31;70114;47.690;8.898;2023-08-24T08:38:59;28.56;53.90
69208;SHT31;70114;47.690;8.898;2023-08-24T08:41:27;28.48;54.14
69208;SHT31;70114;47.690;8.898;2023-08-24T08:43:55;28.41;54.20
69208;SHT31;70114;47.690;8.898;2023-08-24T08:46:21;28.45;54.57
69208;SHT31;70114;47.690;8.898;2023-08-24T08:48:48;28.72;54.63
69208;SHT31;70114;47.690;8.898;2023-08-24T08:51:15;28.96;54.60
69208;SHT31;70114;47.690;8.898;2023-08-24T08:53:41;28.99;54.52
69208;SHT31;70114;47.690;8.898;2023-08-24T08:56:07;28.96;54.13
69208;SHT31;70114;47.690;8.898;2023-08-24T08:58:33;29.07;53.97
69208;SHT31;70114;47.690;8.898;2023-08-24T09:01:02;29.01;53.30
69208;SHT31;70114;47.690;8.898;2023-08-24T09:03:30;28.59;54.33
69208;SHT31;70114;47.690;8.898;2023-08-24T09:05:56;28.77;53.93
69208;SHT31;70114;47.690;8.898;2023-08-24T09:08:22;28.77;54.41
69208;SHT31;70114;47.690;8.898;2023-08-24T09:10:47;28.70;54.25
69208;SHT31;70114;47.690;8.898;2023-08-24T09:13:13;28.70;53.95
69208;SHT31;70114;47.690;8.898;2023-08-24T09:15:39;28.46;53.99
69208;SHT31;70114;47.690;8.898;2023-08-24T09:18:04;28.33;55.65
69208;SHT31;70114;47.690;8.898;2023-08-24T09:20:30;28.31;56.00
69208;SHT31;70114;47.690;8.898;2023-08-24T09:22:56;28.49;56.41
69208;SHT31;70114;47.690;8.898;2023-08-24T09:25:23;28.32;56.10
69208;SHT31;70114;47.690;8.898;2023-08-24T09:28:01;28.29;56.21
69208;SHT31;70114;47.690;8.898;2023-08-24T09:30:34;28.55;54.79
69208;SHT31;70114;47.690;8.898;2023-08-24T09:33:04;28.77;54.47
69208;SHT31;70114;47.690;8.898;2023-08-24T09:35:35;28.96;54.29
69208;SHT31;70114;47.690;8.898;2023-08-24T09:40:46;29.08;52.35
69208;SHT31;70114;47.690;8.898;2023-08-24T09:43:13;29.08;52.95
69208;SHT31;70114;47.690;8.898;2023-08-24T09:45:47;29.42;52.00
69208;SHT31;70114;47.690;8.898;2023-08-24T09:48:12;29.37;52.05
69208;SHT31;70114;47.690;8.898;2023-08-24T09:50:38;29.59;51.09
69208;SHT31;70114;47.690;8.898;2023-08-24T09:53:03;29.66;51.85
69208;SHT31;70114;47.690;8.898;2023-08-24T09:55:33;29.75;50.36
69208;SHT31;70114;47.690;8.898;2023-08-24T09:58:03;29.90;50.25
69208;SHT31;70114;47.690;8.898;2023-08-24T10:00:29;29.85;48.25
69208;SHT31;70114;47.690;8.898;2023-08-24T10:02:55;29.85;49.20
69208;SHT31;70114;47.690;8.898;2023-08-24T10:05:26;29.97;49.49
69208;SHT31;70114;47.690;8.898;2023-08-24T10:07:54;30.10;49.72
69208;SHT31;70114;47.690;8.898;2023-08-24T10:10:21;30.20;50.37
69208;SHT31;70114;47.690;8.898;2023-08-24T10:12:50;30.16;49.81
69208;SHT31;70114;47.690;8.898;2023-08-24T10:15:17;30.18;49.60
69208;SHT31;70114;47.690;8.898;2023-08-24T10:17:44;30.38;49.07
69208;SHT31;70114;47.690;8.898;2023-08-24T10:20:10;30.25;49.19
69208;SHT31;70114;47.690;8.898;2023-08-24T10:22:37;30.42;49.21
69208;SHT31;70114;47.690;8.898;2023-08-24T10:25:03;30.57;49.47
69208;SHT31;70114;47.690;8.898;2023-08-24T10:27:29;30.82;49.59
69208;SHT31;70114;47.690;8.898;2023-08-24T10:29:58;30.89;49.51
69208;SHT31;70114;47.690;8.898;2023-08-24T10:32:26;30.89;48.68
69208;SHT31;70114;47.690;8.898;2023-08-24T10:34:52;30.95;48.69
69208;SHT31;70114;47.690;8.898;2023-08-24T10:37:24;31.00;48.78
69208;SHT31;70114;47.690;8.898;2023-08-24T10:39:50;31.03;48.67
69208;SHT31;70114;47.690;8.898;2023-08-24T10:42:15;31.15;48.42
69208;SHT31;70114;47.690;8.898;2023-08-24T10:44:45;31.22;47.23
69208;SHT31;70114;47.690;8.898;2023-08-24T10:47:21;31.22;48.38
69208;SHT31;70114;47.690;8.898;2023-08-24T10:49:58;31.33;48.32
69208;SHT31;70114;47.690;8.898;2023-08-24T10:52:35;31.54;47.27
69208;SHT31;70114;47.690;8.898;2023-08-24T10:55:21;31.63;47.64
69208;SHT31;70114;47.690;8.898;2023-08-24T10:57:58;31.84;46.71
69208;SHT31;70114;47.690;8.898;2023-08-24T11:00:28;32.01;46.65
69208;SHT31;70114;47.690;8.898;2023-08-24T11:02:54;31.94;47.18
69208;SHT31;70114;47.690;8.898;2023-08-24T11:05:25;32.04;46.82
69208;SHT31;70114;47.690;8.898;2023-08-24T11:08:03;32.12;45.59
69208;SHT31;70114;47.690;8.898;2023-08-24T11:13:15;32.33;44.84
69208;SHT31;70114;47.690;8.898;2023-08-24T11:15:48;32.53;44.78
69208;SHT31;70114;47.690;8.898;2023-08-24T11:18:28;32.26;44.89
69208;SHT31;70114;47.690;8.898;2023-08-24T11:21:02;32.30;45.59
69208;SHT31;70114;47.690;8.898;2023-08-24T11:23:28;32.44;44.61
69208;SHT31;70114;47.690;8.898;2023-08-24T11:25:55;32.53;44.37
69208;SHT31;70114;47.690;8.898;2023-08-24T11:28:23;32.59;45.13
69208;SHT31;70114;47.690;8.898;2023-08-24T11:30:49;32.70;44.98
69208;SHT31;70114;47.690;8.898;2023-08-24T11:33:18;33.05;44.45
69208;SHT31;70114;47.690;8.898;2023-08-24T11:35:52;33.21;44.86
69208;SHT31;70114;47.690;8.898;2023-08-24T11:38:18;33.15;44.29
69208;SHT31;70114;47.690;8.898;2023-08-24T11:40:44;33.21;43.25
69208;SHT31;70114;47.690;8.898;2023-08-24T11:43:09;33.38;42.61
69208;SHT31;70114;47.690;8.898;2023-08-24T11:45:35;33.55;41.84
69208;SHT31;70114;47.690;8.898;2023-08-24T11:48:06;33.39;41.28
69208;SHT31;70114;47.690;8.898;2023-08-24T11:50:32;33.56;41.42
69208;SHT31;70114;47.690;8.898;2023-08-24T11:52:59;33.63;41.47
69208;SHT31;70114;47.690;8.898;2023-08-24T11:55:26;33.51;42.11
69208;SHT31;70114;47.690;8.898;2023-08-24T11:57:51;33.65;41.86
69208;SHT31;70114;47.690;8.898;2023-08-24T12:00:18;33.66;42.09
69208;SHT31;70114;47.690;8.898;2023-08-24T12:02:45;34.04;41.92
69208;SHT31;70114;47.690;8.898;2023-08-24T12:05:24;34.04;43.53
69208;SHT31;70114;47.690;8.898;2023-08-24T12:07:52;34.38;41.66
69208;SHT31;70114;47.690;8.898;2023-08-24T12:10:18;34.61;41.57
69208;SHT31;70114;47.690;8.898;2023-08-24T12:12:43;34.59;41.20
69208;SHT31;70114;47.690;8.898;2023-08-24T12:15:18;34.74;41.00
69208;SHT31;70114;47.690;8.898;2023-08-24T12:17:46;34.88;40.69
69208;SHT31;70114;47.690;8.898;2023-08-24T12:20:19;34.76;40.60
69208;SHT31;70114;47.690;8.898;2023-08-24T12:22:51;34.49;42.15
69208;SHT31;70114;47.690;8.898;2023-08-24T12:25:17;34.79;41.10
69208;SHT31;70114;47.690;8.898;2023-08-24T12:27:42;34.78;40.33
69208;SHT31;70114;47.690;8.898;2023-08-24T12:30:10;34.88;40.54
69208;SHT31;70114;47.690;8.898;2023-08-24T12:32:48;34.91;40.19
69208;SHT31;70114;47.690;8.898;2023-08-24T12:35:17;34.81;39.75
69208;SHT31;70114;47.690;8.898;2023-08-24T12:37:43;35.02;40.25
69208;SHT31;70114;47.690;8.898;2023-08-24T12:40:08;34.88;40.64
69208;SHT31;70114;47.690;8.898;2023-08-24T12:42:35;34.91;40.63
69208;SHT31;70114;47.690;8.898;2023-08-24T12:45:00;35.13;39.26
69208;SHT31;70114;47.690;8.898;2023-08-24T12:47:26;35.20;39.28
69208;SHT31;70114;47.690;8.898;2023-08-24T12:49:51;35.51;39.15
69208;SHT31;70114;47.690;8.898;2023-08-24T12:52:18;35.40;39.18
69208;SHT31;70114;47.690;8.898;2023-08-24T12:54:43;35.71;38.18
69208;SHT31;70114;47.690;8.898;2023-08-24T12:57:09;36.11;37.00
69208;SHT31;70114;47.690;8.898;2023-08-24T12:59:34;36.09;34.40
69208;SHT31;70114;47.690;8.898;2023-08-24T13:02:00;36.21;34.56
69208;SHT31;70114;47.690;8.898;2023-08-24T13:04:26;36.19;33.75
69208;SHT31;70114;47.690;8.898;2023-08-24T13:06:53;36.32;33.79
69208;SHT31;70114;47.690;8.898;2023-08-24T13:09:18;36.24;32.89
69208;SHT31;70114;47.690;8.898;2023-08-24T13:11:44;36.62;33.39
69208;SHT31;70114;47.690;8.898;2023-08-24T13:14:09;36.90;35.15
69208;SHT31;70114;47.690;8.898;2023-08-24T13:16:34;37.10;35.34
69208;SHT31;70114;47.690;8.898;2023-08-24T13:19:00;37.54;34.02
69208;SHT31;70114;47.690;8.898;2023-08-24T13:21:25;37.62;33.32
69208;SHT31;70114;47.690;8.898;2023-08-24T13:23:51;37.99;33.48
69208;SHT31;70114;47.690;8.898;2023-08-24T13:26:21;37.99;32.69
69208;SHT31;70114;47.690;8.898;2023-08-24T13:28:47;38.16;33.00
69208;SHT31;70114;47.690;8.898;2023-08-24T13:31:13;37.87;33.00
69208;SHT31;70114;47.690;8.898;2023-08-24T13:33:38;38.60;32.50
69208;SHT31;70114;47.690;8.898;2023-08-24T13:36:04;38.40;32.40
69208;SHT31;70114;47.690;8.898;2023-08-24T13:38:30;38.34;32.88
69208;SHT31;70114;47.690;8.898;2023-08-24T13:40:55;38.57;32.29
69208;SHT31;70114;47.690;8.898;2023-08-24T13:43:21;38.96;32.70
69208;SHT31;70114;47.690;8.898;2023-08-24T13:45:46;38.99;30.00
69208;SHT31;70114;47.690;8.898;2023-08-24T13:48:12;39.27;29.67
69208;SHT31;70114;47.690;8.898;2023-08-24T13:50:37;39.45;28.80
69208;SHT31;70114;47.690;8.898;2023-08-24T13:53:03;39.42;27.57
69208;SHT31;70114;47.690;8.898;2023-08-24T13:55:29;39.56;27.42
69208;SHT31;70114;47.690;8.898;2023-08-24T13:57:54;39.40;28.19
69208;SHT31;70114;47.690;8.898;2023-08-24T14:00:20;39.49;27.89
69208;SHT31;70114;47.690;8.898;2023-08-24T14:02:48;39.35;27.76
69208;SHT31;70114;47.690;8.898;2023-08-24T14:05:14;39.26;29.17
69208;SHT31;70114;47.690;8.898;2023-08-24T14:07:39;39.26;29.39
69208;SHT31;70114;47.690;8.898;2023-08-24T14:10:05;39.75;28.20
69208;SHT31;70114;47.690;8.898;2023-08-24T14:12:33;39.53;28.69
69208;SHT31;70114;47.690;8.898;2023-08-24T14:14:58;39.91;28.72
69208;SHT31;70114;47.690;8.898;2023-08-24T14:17:24;39.88;27.31
69208;SHT31;70114;47.690;8.898;2023-08-24T14:19:49;40.08;27.47
69208;SHT31;70114;47.690;8.898;2023-08-24T14:22:14;40.19;27.11
69208;SHT31;70114;47.690;8.898;2023-08-24T14:24:40;40.22;27.54
69208;SHT31;70114;47.690;8.898;2023-08-24T14:27:05;40.59;26.46
69208;SHT31;70114;47.690;8.898;2023-08-24T14:29:31;40.75;26.79
69208;SHT31;70114;47.690;8.898;2023-08-24T14:31:56;40.93;27.02
69208;SHT31;70114;47.690;8.898;2023-08-24T14:34:22;41.23;26.58
69208;SHT31;70114;47.690;8.898;2023-08-24T14:36:47;41.28;26.64
69208;SHT31;70114;47.690;8.898;2023-08-24T14:39:12;41.27;26.01
69208;SHT31;70114;47.690;8.898;2023-08-24T14:41:39;41.46;26.09
69208;SHT31;70114;47.690;8.898;2023-08-24T14:44:04;41.30;26.59
69208;SHT31;70114;47.690;8.898;2023-08-24T14:46:29;41.14;26.88
69208;SHT31;70114;47.690;8.898;2023-08-24T14:48:55;41.35;26.97
69208;SHT31;70114;47.690;8.898;2023-08-24T14:51:20;41.38;26.81
69208;SHT31;70114;47.690;8.898;2023-08-24T14:53:46;41.31;26.90
69208;SHT31;70114;47.690;8.898;2023-08-24T14:56:11;40.67;27.35
69208;SHT31;70114;47.690;8.898;2023-08-24T14:58:37;41.49;26.37
69208;SHT31;70114;47.690;8.898;2023-08-24T15:01:02;40.98;26.93
69208;SHT31;70114;47.690;8.898;2023-08-24T15:03:28;41.10;26.88
69208;SHT31;70114;47.690;8.898;2023-08-24T15:06:01;41.38;26.14
69208;SHT31;70114;47.690;8.898;2023-08-24T15:08:29;41.56;26.10
69208;SHT31;70114;47.690;8.898;2023-08-24T15:10:56;41.46;26.02
69208;SHT31;70114;47.690;8.898;2023-08-24T15:13:22;41.28;26.19
69208;SHT31;70114;47.690;8.898;2023-08-24T15:15:48;40.82;27.00
69208;SHT31;70114;47.690;8.898;2023-08-24T15:18:13;40.79;26.96
69208;SHT31;70114;47.690;8.898;2023-08-24T15:20:39;40.66;26.51
69208;SHT31;70114;47.690;8.898;2023-08-24T15:23:04;40.46;26.80
69208;SHT31;70114;47.690;8.898;2023-08-24T15:25:31;40.46;26.69
69208;SHT31;70114;47.690;8.898;2023-08-24T15:27:57;40.59;26.99
69208;SHT31;70114;47.690;8.898;2023-08-24T15:30:23;40.19;27.53
69208;SHT31;70114;47.690;8.898;2023-08-24T15:32:49;40.55;26.92
69208;SHT31;70114;47.690;8.898;2023-08-24T15:35:14;40.73;26.94
69208;SHT31;70114;47.690;8.898;2023-08-24T15:37:41;40.56;26.69
69208;SHT31;70114;47.690;8.898;2023-08-24T15:40:07;40.67;26.89
69208;SHT31;70114;47.690;8.898;2023-08-24T15:42:33;40.73;26.58
69208;SHT31;70114;47.690;8.898;2023-08-24T15:44:59;41.08;26.16
69208;SHT31;70114;47.690;8.898;2023-08-24T15:47:24;40.16;27.12
69208;SHT31;70114;47.690;8.898;2023-08-24T15:49:49;40.76;26.75